Meath Environmental Platform

Observations for Trim Market St

Time AQI Temp °C Hum % Pres Pa CO μg/m³ H₂S μg/m³ NO μg/m³ NO₂ μg/m³ O₃ μg/m³ SO₂ μg/m³ PM1 μg/m³ PM2.5 μg/m³ PM10 μg/m³
Friday 10 July 2026
18:45 1 29.6 44 63,147 0 6.7 0 16.18 12.79 0 1.43 3.76 4.13
18:44 1 29.6 44 63,096 0 6.81 0 15.78 11.93 0 3.56 5.33 5.96
18:42 1 29.6 44 62,991 0 10.37 0 21.39 14.65 0 1.43 4.81 5.18
18:40 1 29.6 44 63,090 0 11.42 0 44 0 0 2.14 5.34 5.96
18:35 1 29.7 44 63,325 0 10.85 0 12.91 24.34 0 1.43 3.78 4.16
18:33 1 29.7 43 63,392 0 13.53 0 14.12 25.44 0 2.14 4.83 5.17
18:26 1 29.9 43 63,689 0 15.21 0 15.05 25.67 0 0.71 4.34 4.37
18:25 1 30 43 63,746 0 12.74 0 12.43 25.54 0 1.43 4.35 4.37
18:24 1 30 42 63,847 0 12.31 0 12.34 24.93 0 1.43 3.82 4.37
18:22 1 30.1 42 63,862 0 13.78 0 12.83 22.49 0 1.43 3.83 4.21
18:21 1 30.1 42 63,862 0 14.1 0 12.33 23.05 0 1.43 3.83 4.21
18:19 1 30.2 42 63,898 0 12.97 0 12.42 21.58 0 2.14 5.42 6.73
18:18 1 30.2 42 63,876 0 14.95 0 12.21 19.26 0 1.43 4.36 5.15
18:17 1 30.2 42 63,847 0 17.42 0 13.11 20.74 0 2.14 4.36 4.36
18:15 1 30.3 42 63,944 0 20.92 0 15.71 30.61 0 1.43 3.84 4.36
18:14 1 30.4 42 64,100 0 19.23 0 15.62 26.1 0 2.14 4.38 4.82
18:11 1 30.5 42 64,248 0 18.58 0 13.42 23.21 0 1.43 4.92 5.14
18:09 1 30.7 41 64,347 0 21.71 0 16.3 23.3 0 0.71 4.41 4.85
18:07 1 30.8 41 64,594 0 20.69 0 15.71 25.02 0 1.43 4.43 4.87
18:02 1 31.1 40 65,007 0 21.58 0 15.31 22.52 0 1.43 4.46 4.9